Time;durP1;ratioP1;P1;durP2;ratioP2;P2;SDS_P1;SDS_P2;PMS_P1;PMS_P2;Temp;Humidity;BMP_temperature;BMP_pressure;BME280_temperature;BME280_humidity;BME280_pressure;Samples;Min_cycle;Max_cycle;Signal;HPM_P1;HPM_P2
2021/03/13 00:00:50;;;;;;;1.17;1.10;;;6.30;84.00;;;;;;5078097;28;20181;-83
2021/03/13 00:03:16;;;;;;;2.60;1.27;;;6.30;84.50;;;;;;5060413;28;20184;-83
2021/03/13 00:05:43;;;;;;;2.73;1.00;;;6.30;84.70;;;;;;5059769;28;20197;-83
2021/03/13 00:08:11;;;;;;;1.60;0.80;;;6.20;84.60;;;;;;5060081;28;20220;-83
2021/03/13 00:10:38;;;;;;;4.07;1.33;;;6.30;85.40;;;;;;5060157;28;20272;-83
2021/03/13 00:13:05;;;;;;;1.70;1.20;;;6.30;84.70;;;;;;5060059;28;20657;-83
2021/03/13 00:15:30;;;;;;;1.73;1.30;;;6.30;84.70;;;;;;5059836;28;20439;-83
2021/03/13 00:17:57;;;;;;;2.00;1.10;;;6.30;84.70;;;;;;5059915;28;20668;-83
2021/03/13 00:20:25;;;;;;;2.93;1.27;;;6.30;84.30;;;;;;5078486;28;20651;-83
2021/03/13 00:22:52;;;;;;;2.20;1.60;;;6.30;83.80;;;;;;5060306;28;20419;-83
2021/03/13 00:25:19;;;;;;;1.93;1.10;;;6.30;84.30;;;;;;5077973;28;20435;-83
2021/03/13 00:27:46;;;;;;;1.30;1.20;;;6.30;83.70;;;;;;5078055;28;20455;-83
2021/03/13 00:30:20;;;;;;;2.90;1.50;;;6.30;83.50;;;;;;5059957;28;20169;-83
2021/03/13 00:32:49;;;;;;;2.50;1.07;;;6.30;83.30;;;;;;5060353;28;20211;-83
2021/03/13 00:35:16;;;;;;;1.30;1.20;;;6.20;83.50;;;;;;5078223;28;20481;-83
2021/03/13 00:37:42;;;;;;;2.23;1.20;;;6.20;83.50;;;;;;5060271;28;20318;-83
2021/03/13 00:40:11;;;;;;;1.67;1.27;;;6.20;83.80;;;;;;5060472;28;20437;-83
2021/03/13 00:42:36;;;;;;;2.17;1.20;;;6.10;84.50;;;;;;5060854;28;20629;-83
2021/03/13 00:45:03;;;;;;;1.47;1.10;;;6.10;83.70;;;;;;5060423;28;20205;-83
2021/03/13 00:47:29;;;;;;;2.60;1.00;;;6.20;83.80;;;;;;5060639;28;20200;-83
2021/03/13 00:49:54;;;;;;;2.30;1.17;;;6.20;84.00;;;;;;5060378;28;20195;-83
2021/03/13 00:52:20;;;;;;;0.80;0.80;;;6.20;84.70;;;;;;5077543;28;20173;-83
2021/03/13 00:54:46;;;;;;;2.93;1.93;;;6.20;85.10;;;;;;5059251;28;20212;-83
2021/03/13 00:57:12;;;;;;;0.90;0.90;;;6.20;85.50;;;;;;5078473;28;20210;-83
2021/03/13 00:59:37;;;;;;;1.10;0.90;;;6.20;85.80;;;;;;5076812;28;20181;-83
2021/03/13 01:02:03;;;;;;;1.87;1.13;;;6.20;86.20;;;;;;5059984;28;20188;-83
2021/03/13 01:04:29;;;;;;;1.70;1.10;;;6.20;86.40;;;;;;5078703;28;20204;-83
2021/03/13 01:06:54;;;;;;;4.87;1.00;;;6.10;86.90;;;;;;5060113;28;20212;-83
2021/03/13 01:09:20;;;;;;;1.50;1.17;;;6.00;88.50;;;;;;5078823;28;20244;-83
2021/03/13 01:11:46;;;;;;;1.33;0.77;;;6.00;88.80;;;;;;5076435;28;20188;-83
2021/03/13 01:14:12;;;;;;;1.70;1.10;;;6.00;90.70;;;;;;5060754;28;20177;-83
2021/03/13 01:16:37;;;;;;;1.47;0.70;;;6.00;90.90;;;;;;5060831;28;20650;-83
2021/03/13 01:19:03;;;;;;;1.33;1.00;;;5.90;91.40;;;;;;5078980;28;20208;-83
2021/03/13 01:21:29;;;;;;;4.43;1.13;;;5.80;91.90;;;;;;5061282;28;20185;-84
2021/03/13 01:23:55;;;;;;;1.37;0.90;;;5.70;92.50;;;;;;5080272;28;20203;-83
2021/03/13 01:26:21;;;;;;;3.57;1.30;;;5.70;93.20;;;;;;5078032;28;20607;-83
2021/03/13 01:28:47;;;;;;;3.23;1.43;;;5.60;93.70;;;;;;5078498;28;20634;-83
2021/03/13 01:31:13;;;;;;;0.67;0.67;;;5.50;94.20;;;;;;5077630;28;20184;-83
2021/03/13 01:33:39;;;;;;;1.90;1.20;;;5.50;94.50;;;;;;5077836;28;20180;-83
2021/03/13 01:36:05;;;;;;;1.50;1.10;;;5.40;94.90;;;;;;5080232;28;20261;-83
2021/03/13 01:38:31;;;;;;;1.17;1.00;;;5.40;95.30;;;;;;5061811;28;20639;-83
2021/03/13 01:40:57;;;;;;;2.23;1.10;;;5.30;95.70;;;;;;5079346;28;20260;-83
2021/03/13 01:43:22;;;;;;;2.13;1.27;;;5.30;95.90;;;;;;5061758;28;20626;-83
2021/03/13 01:45:48;;;;;;;1.17;1.07;;;5.20;96.50;;;;;;5060593;28;20193;-83
2021/03/13 01:48:14;;;;;;;1.70;1.10;;;5.30;96.40;;;;;;5077593;28;20197;-84
2021/03/13 01:50:39;;;;;;;1.10;0.97;;;5.30;96.30;;;;;;5077414;28;20192;-84
2021/03/13 01:53:05;;;;;;;1.73;1.47;;;5.40;96.70;;;;;;5059429;28;20626;-83
2021/03/13 01:55:31;;;;;;;1.37;0.90;;;5.40;96.60;;;;;;5058828;28;20204;-83
2021/03/13 01:57:57;;;;;;;1.70;1.20;;;5.40;97.20;;;;;;5077279;28;20180;-83
2021/03/13 02:00:24;;;;;;;1.27;1.17;;;5.40;97.40;;;;;;5059451;28;20185;-83
2021/03/13 02:02:50;;;;;;;2.47;1.07;;;5.40;97.60;;;;;;5059667;28;20177;-84
2021/03/13 02:05:29;;;;;;;3.77;1.20;;;5.30;97.90;;;;;;5059694;28;20470;-83
2021/03/13 02:08:15;;;;;;;2.60;1.23;;;5.30;98.50;;;;;;5059344;28;20258;-83
2021/03/13 02:11:01;;;;;;;1.60;1.10;;;5.30;99.30;;;;;;5078645;28;20169;-83
2021/03/13 02:14:16;;;;;;;1.10;1.10;;;5.30;99.80;;;;;;5060858;28;20242;-83
2021/03/13 02:17:06;;;;;;;2.07;0.97;;;5.30;99.90;;;;;;5032329;28;20901;-83
2021/03/13 02:19:47;;;;;;;1.73;1.07;;;5.30;99.90;;;;;;5083116;28;20403;-83
2021/03/13 02:22:14;;;;;;;5.47;1.00;;;5.30;99.90;;;;;;5064919;28;20437;-83
2021/03/13 02:24:51;;;;;;;1.27;0.97;;;5.30;99.90;;;;;;5065035;28;20246;-83
2021/03/13 02:27:21;;;;;;;1.73;1.03;;;5.30;99.90;;;;;;5061226;28;20231;-83
2021/03/13 02:29:54;;;;;;;1.47;1.00;;;5.20;99.90;;;;;;5059538;28;20415;-83
2021/03/13 02:32:35;;;;;;;2.97;1.10;;;5.20;99.90;;;;;;5059310;28;20450;-83
2021/03/13 02:35:21;;;;;;;1.37;1.07;;;5.00;99.90;;;;;;5077543;28;20862;-83
2021/03/13 02:37:50;;;;;;;2.10;1.30;;;4.90;99.90;;;;;;5059918;28;20403;-83
2021/03/13 02:40:19;;;;;;;1.77;1.03;;;4.80;99.90;;;;;;5060905;28;20203;-83
2021/03/13 02:42:53;;;;;;;2.37;1.17;;;4.80;99.90;;;;;;5058698;28;20741;-82
2021/03/13 02:45:23;;;;;;;3.47;1.27;;;4.70;99.90;;;;;;5086182;28;20426;-82
2021/03/13 02:47:51;;;;;;;1.40;1.20;;;4.70;99.90;;;;;;5080651;28;20204;-83
2021/03/13 02:50:17;;;;;;;3.80;1.77;;;4.70;99.90;;;;;;5084401;28;20411;-82
2021/03/13 02:52:43;;;;;;;2.93;1.30;;;4.60;99.90;;;;;;5087593;28;21012;-83
2021/03/13 02:55:12;;;;;;;1.67;1.50;;;4.60;99.90;;;;;;5062937;28;20212;-83
2021/03/13 02:57:40;;;;;;;3.63;1.10;;;4.50;99.90;;;;;;5080950;28;20407;-83
2021/03/13 03:00:07;;;;;;;1.97;1.30;;;4.50;99.90;;;;;;5062515;28;20412;-83
2021/03/13 03:02:38;;;;;;;2.13;1.10;;;4.60;99.90;;;;;;5081801;28;20403;-83
2021/03/13 03:05:06;;;;;;;0.93;0.83;;;4.60;99.90;;;;;;5062406;28;20937;-83
2021/03/13 03:07:32;;;;;;;1.87;1.43;;;;;;;;;;5079688;28;20466;-83
2021/03/13 03:10:00;;;;;;;1.67;1.23;;;4.70;99.90;;;;;;5063158;28;20466;-83
2021/03/13 03:12:26;;;;;;;1.33;1.10;;;4.70;99.90;;;;;;5081231;28;20418;-83
2021/03/13 03:14:53;;;;;;;0.90;0.90;;;4.80;99.90;;;;;;5062790;28;20435;-83
2021/03/13 03:17:20;;;;;;;1.13;1.03;;;4.80;99.90;;;;;;5063273;28;20947;-83
2021/03/13 03:19:47;;;;;;;1.33;1.10;;;4.90;99.90;;;;;;5081246;28;20176;-83
2021/03/13 03:22:14;;;;;;;2.17;0.80;;;4.90;99.90;;;;;;5081678;28;20414;-83
2021/03/13 03:24:41;;;;;;;0.80;0.80;;;4.80;99.90;;;;;;5062994;28;20496;-83
2021/03/13 03:27:07;;;;;;;2.33;1.30;;;4.70;99.90;;;;;;5081793;28;20457;-83
2021/03/13 03:29:33;;;;;;;3.30;1.30;;;4.60;99.90;;;;;;5082328;28;20507;-83
2021/03/13 03:31:59;;;;;;;1.93;1.40;;;;;;;;;;5064137;28;20195;-83
2021/03/13 03:34:24;;;;;;;1.57;1.10;;;4.30;99.90;;;;;;5065056;28;20208;-83
2021/03/13 03:36:50;;;;;;;1.80;1.17;;;4.20;99.90;;;;;;5064593;28;20169;-83
2021/03/13 03:39:16;;;;;;;3.00;1.53;;;4.20;99.90;;;;;;5065401;28;20180;-83
2021/03/13 03:41:46;;;;;;;3.03;1.33;;;4.10;99.90;;;;;;5065738;28;20639;-83
2021/03/13 03:44:18;;;;;;;1.53;1.13;;;4.10;99.90;;;;;;5083257;28;20388;-83
2021/03/13 03:46:44;;;;;;;2.83;1.30;;;4.10;99.90;;;;;;5065532;28;20459;-83
2021/03/13 03:49:13;;;;;;;4.13;1.30;;;4.10;99.90;;;;;;5083567;28;20449;-83
2021/03/13 03:51:39;;;;;;;2.17;1.30;;;;;;;;;;5083766;28;20422;-83
2021/03/13 03:54:10;;;;;;;1.90;1.20;;;4.10;99.90;;;;;;5063594;28;20415;-83
2021/03/13 03:56:41;;;;;;;2.43;1.30;;;4.20;99.90;;;;;;5061332;28;20411;-83
2021/03/13 03:59:26;;;;;;;2.77;1.40;;;4.10;99.90;;;;;;5079994;28;20399;-83
2021/03/13 04:01:53;;;;;;;4.40;1.40;;;4.10;99.90;;;;;;5080184;28;20479;-83
2021/03/13 04:04:21;;;;;;;1.97;1.07;;;4.20;99.90;;;;;;5078208;28;20430;-83
2021/03/13 04:06:48;;;;;;;1.93;1.07;;;;;;;;;;5079111;28;20465;-83
2021/03/13 04:09:14;;;;;;;2.00;1.13;;;4.30;99.90;;;;;;5061524;28;20842;-83
2021/03/13 04:11:41;;;;;;;0.93;0.93;;;4.30;99.90;;;;;;5061538;28;20419;-83
2021/03/13 04:14:08;;;;;;;1.33;1.17;;;4.50;99.90;;;;;;5061430;28;20420;-83
2021/03/13 04:16:34;;;;;;;2.07;1.00;;;;;;;;;;5079548;28;20461;-83
2021/03/13 04:19:01;;;;;;;1.03;1.00;;;;;;;;;;5061283;28;20423;-83
2021/03/13 04:21:28;;;;;;;2.90;1.13;;;4.70;99.90;;;;;;5060676;28;20503;-83
2021/03/13 04:23:54;;;;;;;3.57;1.33;;;;;;;;;;5060792;28;20850;-83
2021/03/13 04:26:21;;;;;;;3.07;1.07;;;;;;;;;;5079181;28;20461;-83
2021/03/13 04:28:48;;;;;;;1.77;1.30;;;4.70;99.90;;;;;;5060969;28;20403;-83
2021/03/13 04:31:15;;;;;;;2.53;1.30;;;4.80;99.90;;;;;;5061152;28;20419;-83
2021/03/13 04:33:42;;;;;;;1.87;1.50;;;4.80;99.90;;;;;;5079060;28;20414;-83
2021/03/13 04:36:08;;;;;;;1.73;1.03;;;;;;;;;;5079064;28;20573;-83
2021/03/13 04:38:35;;;;;;;2.20;1.10;;;4.80;99.90;;;;;;5079430;28;20403;-83
2021/03/13 04:41:01;;;;;;;2.40;1.20;;;;;;;;;;5059988;28;20755;-83
2021/03/13 04:43:27;;;;;;;1.80;1.20;;;4.80;99.90;;;;;;5061241;28;20469;-83
2021/03/13 04:46:01;;;;;;;1.63;1.20;;;4.80;99.90;;;;;;5060729;28;20196;-83
2021/03/13 04:48:29;;;;;;;1.27;1.17;;;4.70;99.90;;;;;;5079516;28;20521;-83
2021/03/13 04:51:00;;;;;;;0.70;0.70;;;4.70;99.90;;;;;;5060756;28;20415;-83
2021/03/13 04:53:26;;;;;;;1.27;0.83;;;;;;;;;;5078818;28;20412;-83
2021/03/13 04:55:52;;;;;;;2.70;1.30;;;;;;;;;;5059823;28;20420;-83
2021/03/13 04:58:18;;;;;;;2.03;1.10;;;;;;;;;;5058933;28;20423;-83
2021/03/13 05:00:46;;;;;;;4.17;1.30;;;;;;;;;;5076655;28;20404;-83
2021/03/13 05:03:11;;;;;;;1.53;0.77;;;4.60;99.90;;;;;;5058347;28;20454;-83
2021/03/13 05:05:37;;;;;;;1.23;0.70;;;;;;;;;;5057799;28;20206;-83
2021/03/13 05:08:03;;;;;;;2.23;1.37;;;4.50;99.90;;;;;;5057831;28;20316;-83
2021/03/13 05:10:29;;;;;;;0.97;0.87;;;;;;;;;;5074933;28;20256;-83
2021/03/13 05:12:55;;;;;;;2.47;1.10;;;4.40;99.90;;;;;;5057695;28;20269;-83
2021/03/13 05:15:22;;;;;;;0.87;0.87;;;4.20;99.90;;;;;;5057998;28;20291;-83
2021/03/13 05:17:48;;;;;;;1.20;1.10;;;4.10;99.90;;;;;;5075509;28;20614;-83
2021/03/13 05:20:14;;;;;;;3.13;0.93;;;4.20;99.90;;;;;;5058006;28;20232;-83
2021/03/13 05:22:40;;;;;;;1.00;0.97;;;4.30;99.90;;;;;;5057503;28;20238;-83
2021/03/13 05:25:06;;;;;;;1.17;0.90;;;4.20;99.90;;;;;;5057602;28;20213;-83
2021/03/13 05:27:32;;;;;;;1.13;0.80;;;4.30;99.90;;;;;;5057074;28;20210;-83
2021/03/13 05:29:58;;;;;;;0.80;0.80;;;;;;;;;;5057639;28;20181;-83
2021/03/13 05:32:26;;;;;;;1.20;1.10;;;4.30;99.90;;;;;;5057200;28;20205;-83
2021/03/13 05:34:54;;;;;;;2.50;0.90;;;4.30;99.90;;;;;;5074915;28;20185;-83
2021/03/13 05:37:20;;;;;;;4.27;1.00;;;4.60;99.90;;;;;;5056937;28;20511;-83
2021/03/13 05:39:46;;;;;;;1.70;1.03;;;;;;;;;;5074250;28;20181;-82
2021/03/13 05:42:13;;;;;;;1.67;0.87;;;4.50;99.90;;;;;;5056047;28;20196;-82
2021/03/13 05:44:39;;;;;;;0.80;0.80;;;;;;;;;;5078165;28;20200;-82
2021/03/13 05:47:04;;;;;;;1.10;0.90;;;4.40;99.90;;;;;;5073965;28;20224;-82
2021/03/13 05:49:35;;;;;;;1.53;0.80;;;;;;;;;;5098701;28;20162;-83
2021/03/13 05:52:03;;;;;;;1.30;0.80;;;4.60;99.90;;;;;;5074626;28;20198;-83
2021/03/13 05:54:29;;;;;;;2.23;0.87;;;4.70;99.90;;;;;;5084479;28;20201;-83
2021/03/13 05:56:58;;;;;;;1.60;0.90;;;4.80;99.90;;;;;;5067099;28;20244;-83
2021/03/13 05:59:24;;;;;;;0.60;0.60;;;;;;;;;;5083830;28;20182;-83
2021/03/13 06:01:51;;;;;;;0.77;0.70;;;5.00;99.90;;;;;;5064379;28;20189;-83
2021/03/13 06:04:17;;;;;;;1.00;0.90;;;5.00;99.90;;;;;;5064035;28;20647;-83
2021/03/13 06:06:43;;;;;;;1.33;1.00;;;;;;;;;;5082437;28;20213;-83
2021/03/13 06:09:11;;;;;;;4.80;0.97;;;5.10;99.90;;;;;;5064709;28;20282;-83
2021/03/13 06:11:37;;;;;;;1.90;1.00;;;5.20;99.90;;;;;;5064822;28;20200;-83
2021/03/13 06:14:03;;;;;;;1.20;0.87;;;5.10;99.90;;;;;;5064333;28;20612;-83
2021/03/13 06:16:32;;;;;;;1.73;0.93;;;5.10;99.90;;;;;;5081092;28;20180;-83
2021/03/13 06:18:58;;;;;;;2.13;1.23;;;;;;;;;;5064908;28;20204;-83
2021/03/13 06:21:34;;;;;;;1.20;1.10;;;5.20;99.90;;;;;;5065641;28;20505;-83
2021/03/13 06:24:13;;;;;;;3.30;1.20;;;5.20;99.90;;;;;;5083009;28;20223;-83
2021/03/13 06:27:03;;;;;;;0.90;0.90;;;5.20;99.90;;;;;;5065047;28;20451;-83
2021/03/13 06:29:30;;;;;;;1.17;1.00;;;5.30;99.90;;;;;;5065070;28;20165;-82
2021/03/13 06:32:07;;;;;;;0.77;0.70;;;5.30;99.90;;;;;;5082086;28;20427;-82
2021/03/13 06:34:33;;;;;;;2.90;1.73;;;5.30;99.90;;;;;;5065473;28;20196;-84
2021/03/13 06:37:25;;;;;;;0.90;0.90;;;5.30;99.90;;;;;;5083633;28;20442;-83
2021/03/13 06:39:56;;;;;;;1.50;0.90;;;5.30;99.90;;;;;;5065001;28;20181;-83
2021/03/13 06:42:23;;;;;;;2.80;1.13;;;5.30;99.90;;;;;;5067661;28;20436;-83
2021/03/13 06:44:59;;;;;;;2.47;1.30;;;5.30;99.90;;;;;;5067499;28;20721;-84
2021/03/13 06:47:39;;;;;;;2.80;1.17;;;5.30;99.90;;;;;;5067173;28;20196;-83
2021/03/13 06:50:12;;;;;;;1.40;1.10;;;5.40;99.90;;;;;;5085586;28;20435;-83
2021/03/13 06:52:39;;;;;;;1.47;1.00;;;5.30;99.90;;;;;;5068982;28;20268;-83
2021/03/13 06:55:05;;;;;;;1.40;1.07;;;5.60;99.90;;;;;;5067824;28;20196;-83
2021/03/13 06:57:31;;;;;;;1.53;0.97;;;5.40;99.90;;;;;;5066326;28;20223;-83
2021/03/13 07:00:00;;;;;;;3.33;1.17;;;;;;;;;;5063879;28;20245;-83
2021/03/13 07:02:26;;;;;;;3.70;1.43;;;;;;;;;;5063854;28;20177;-83
2021/03/13 07:04:52;;;;;;;1.00;1.00;;;5.80;99.90;;;;;;5063551;28;20450;-83
2021/03/13 07:07:29;;;;;;;2.73;1.40;;;6.00;99.90;;;;;;5080438;28;20212;-83
2021/03/13 07:09:56;;;;;;;1.20;1.10;;;5.80;99.90;;;;;;5082123;28;20175;-83
2021/03/13 07:12:34;;;;;;;6.53;1.30;;;6.20;99.90;;;;;;5063832;28;20419;-84
2021/03/13 07:15:19;;;;;;;2.13;0.90;;;6.00;99.90;;;;;;5092307;28;20434;-83
2021/03/13 07:17:54;;;;;;;3.20;1.33;;;6.00;99.90;;;;;;5083123;28;20430;-84
2021/03/13 07:20:26;;;;;;;2.27;1.07;;;6.00;99.90;;;;;;5082276;28;20619;-83
2021/03/13 07:22:54;;;;;;;1.67;1.30;;;6.10;99.90;;;;;;5078976;28;20502;-83
2021/03/13 07:25:22;;;;;;;1.23;1.10;;;6.20;99.90;;;;;;5081664;28;20209;-84
2021/03/13 07:27:59;;;;;;;1.47;1.00;;;6.20;99.90;;;;;;5079629;28;20201;-80
2021/03/13 07:30:26;;;;;;;3.93;1.10;;;6.30;99.90;;;;;;5099126;28;20168;-83
2021/03/13 07:32:58;;;;;;;1.23;1.13;;;6.20;99.90;;;;;;5083791;28;20904;-82
2021/03/13 07:35:27;;;;;;;1.23;1.13;;;6.30;99.90;;;;;;5083271;28;20192;-83
2021/03/13 07:37:55;;;;;;;1.40;1.20;;;6.40;99.90;;;;;;5102428;28;20187;-85
2021/03/13 07:40:23;;;;;;;1.60;1.10;;;6.50;99.90;;;;;;5083867;28;20176;-83
2021/03/13 07:42:49;;;;;;;1.40;0.90;;;6.50;99.90;;;;;;5083759;28;20203;-83
2021/03/13 07:45:18;;;;;;;1.33;0.80;;;6.50;99.90;;;;;;5101993;28;20546;-83
2021/03/13 07:47:44;;;;;;;1.00;1.00;;;6.50;99.90;;;;;;5067708;28;20210;-83
2021/03/13 07:50:14;;;;;;;2.10;1.17;;;6.60;99.90;;;;;;5102423;28;20263;-83
2021/03/13 07:52:41;;;;;;;2.07;1.10;;;6.70;99.90;;;;;;5102215;28;20188;-83
2021/03/13 07:55:15;;;;;;;1.07;0.97;;;6.70;99.90;;;;;;5102185;28;20329;-83
2021/03/13 07:57:51;;;;;;;1.30;0.97;;;6.70;99.90;;;;;;5081821;28;20567;-83
2021/03/13 08:00:17;;;;;;;1.93;1.10;;;6.70;99.90;;;;;;5081322;28;20658;-83
2021/03/13 08:02:46;;;;;;;1.13;1.03;;;6.90;99.90;;;;;;5087955;28;20601;-83
2021/03/13 08:05:18;;;;;;;1.83;0.80;;;6.60;99.90;;;;;;5102068;28;20309;-83
2021/03/13 08:08:03;;;;;;;2.03;1.37;;;6.60;99.90;;;;;;5083335;28;20221;-83
2021/03/13 08:10:50;;;;;;;2.47;1.00;;;6.60;99.90;;;;;;5080662;28;20183;-83
2021/03/13 08:13:27;;;;;;;1.50;1.20;;;6.60;99.90;;;;;;5098239;28;20189;-83
2021/03/13 08:16:07;;;;;;;1.37;0.97;;;6.60;99.90;;;;;;5098419;28;20272;-83
2021/03/13 08:18:50;;;;;;;5.27;1.40;;;6.60;99.90;;;;;;5099106;28;20173;-83
2021/03/13 08:21:19;;;;;;;1.63;1.07;;;6.70;99.90;;;;;;5080680;28;20640;-83
2021/03/13 08:23:55;;;;;;;2.53;1.00;;;6.80;99.90;;;;;;5080272;28;20181;-83
2021/03/13 08:26:35;;;;;;;5.23;3.00;;;6.70;99.90;;;;;;5098221;28;20196;-83
2021/03/13 08:29:08;;;;;;;2.07;1.30;;;6.90;99.90;;;;;;5080013;28;20610;-83
2021/03/13 08:31:37;;;;;;;5.80;3.50;;;7.10;99.90;;;;;;5079501;28;20177;-83
2021/03/13 08:34:06;;;;;;;0.90;0.90;;;7.10;99.90;;;;;;5078973;28;20634;-83
2021/03/13 08:36:42;;;;;;;1.97;1.77;;;7.10;99.90;;;;;;5079630;28;20545;-82
2021/03/13 08:39:13;;;;;;;9.30;4.43;;;7.30;99.90;;;;;;5078294;28;20177;-82
2021/03/13 08:41:45;;;;;;;3.53;1.70;;;7.60;99.90;;;;;;5096491;28;20165;-83
2021/03/13 08:44:25;;;;;;;1.53;1.27;;;8.20;99.60;;;;;;5078699;28;20189;-83
2021/03/13 08:47:05;;;;;;;14.43;9.07;;;8.20;99.50;;;;;;5097076;28;20223;-83
2021/03/13 08:49:31;;;;;;;12.17;6.43;;;8.50;99.20;;;;;;5090119;28;20175;-82
2021/03/13 08:52:19;;;;;;;5.87;3.40;;;8.70;97.80;;;;;;5118822;28;20175;-83
2021/03/13 08:54:46;;;;;;;4.90;3.63;;;8.70;97.90;;;;;;5092137;28;20194;-81
2021/03/13 08:57:15;;;;;;;2.50;1.60;;;8.90;97.60;;;;;;5087050;28;20184;-83
2021/03/13 08:59:57;;;;;;;8.07;4.00;;;8.80;96.40;;;;;;5085212;28;20176;-84
2021/03/13 09:02:26;;;;;;;14.30;5.83;;;8.60;95.90;;;;;;5085823;28;20164;-83
2021/03/13 09:04:55;;;;;;;12.20;8.17;;;8.60;95.60;;;;;;5086360;28;20203;-83
2021/03/13 09:07:23;;;;;;;10.13;6.33;;;8.70;95.10;;;;;;5085252;28;20211;-84
2021/03/13 09:09:50;;;;;;;6.07;4.27;;;8.80;94.10;;;;;;5084317;28;20172;-83
2021/03/13 09:12:20;;;;;;;9.30;5.50;;;8.80;91.30;;;;;;5102631;28;20235;-83
2021/03/13 09:14:51;;;;;;;6.10;3.27;;;9.20;91.00;;;;;;5085093;28;20241;-83
2021/03/13 09:17:19;;;;;;;9.97;5.20;;;9.50;90.80;;;;;;5086010;28;20641;-83
2021/03/13 09:19:47;;;;;;;36.43;19.27;;;9.40;89.70;;;;;;5104425;28;20173;-83
2021/03/13 09:22:21;;;;;;;3.20;2.90;;;9.40;90.40;;;;;;5084715;28;20535;-83
2021/03/13 09:25:00;;;;;;;2.07;1.10;;;9.50;90.20;;;;;;5104113;28;20253;-83
2021/03/13 09:27:27;;;;;;;2.77;1.37;;;9.30;89.00;;;;;;5088446;28;20196;-84
2021/03/13 09:29:54;;;;;;;4.57;3.37;;;9.10;88.60;;;;;;5108671;28;20231;-83
2021/03/13 09:32:21;;;;;;;1.63;1.50;;;9.20;90.50;;;;;;5090381;28;20186;-83
2021/03/13 09:34:48;;;;;;;2.83;1.90;;;9.20;90.80;;;;;;5108921;28;20231;-83
2021/03/13 09:37:21;;;;;;;2.00;0.90;;;9.30;90.60;;;;;;5108647;28;20232;-84
2021/03/13 09:40:08;;;;;;;1.00;0.70;;;9.50;90.40;;;;;;5108364;28;20183;-84
2021/03/13 09:42:35;;;;;;;2.00;0.93;;;9.90;90.40;;;;;;5098198;28;20192;-84
2021/03/13 09:45:05;;;;;;;2.10;0.80;;;10.10;88.40;;;;;;5090107;28;20204;-84
2021/03/13 09:47:42;;;;;;;1.67;0.80;;;9.70;88.20;;;;;;5108233;28;20549;-83
2021/03/13 09:50:16;;;;;;;1.53;0.90;;;9.40;87.80;;;;;;5108482;28;20191;-84
2021/03/13 09:52:44;;;;;;;3.00;1.20;;;9.50;88.40;;;;;;5089702;28;20172;-83
2021/03/13 09:55:12;;;;;;;2.27;1.47;;;9.70;88.20;;;;;;5108025;28;20195;-84
2021/03/13 09:57:40;;;;;;;3.13;0.90;;;10.10;85.60;;;;;;5090074;28;20202;-85
2021/03/13 10:00:21;;;;;;;1.73;1.00;;;10.10;85.40;;;;;;5108051;28;20172;-83
2021/03/13 10:02:48;;;;;;;1.87;1.10;;;10.20;85.10;;;;;;5089438;28;20684;-83
2021/03/13 10:05:15;;;;;;;3.60;0.97;;;9.90;86.40;;;;;;5089337;28;20558;-84
2021/03/13 10:07:43;;;;;;;3.60;1.10;;;9.90;86.50;;;;;;5088781;28;20574;-84
2021/03/13 10:10:13;;;;;;;1.90;1.53;;;10.00;86.30;;;;;;5089035;28;20625;-84
2021/03/13 10:12:51;;;;;;;3.37;1.20;;;10.00;86.00;;;;;;5089131;28;20240;-83
2021/03/13 10:15:25;;;;;;;2.40;1.20;;;10.00;86.70;;;;;;5089636;28;20195;-84
2021/03/13 10:18:14;;;;;;;0.83;0.70;;;10.10;86.40;;;;;;5088690;28;20175;-83
2021/03/13 10:20:47;;;;;;;2.00;0.97;;;10.30;86.00;;;;;;5088298;28;20211;-83
2021/03/13 10:23:24;;;;;;;1.80;0.70;;;10.60;85.50;;;;;;5089410;28;20700;-83
2021/03/13 10:25:58;;;;;;;3.13;1.90;;;10.50;83.70;;;;;;5106697;28;20206;-83
2021/03/13 10:28:28;;;;;;;2.50;1.00;;;10.20;83.60;;;;;;5085055;28;20246;-85
2021/03/13 10:31:20;;;;;;;3.60;1.70;;;10.10;84.20;;;;;;5084442;28;20263;-84
2021/03/13 10:33:47;;;;;;;2.23;0.93;;;10.40;84.80;;;;;;5085514;28;20235;-84
2021/03/13 10:36:14;;;;;;;2.13;1.03;;;10.60;85.10;;;;;;5085765;28;20193;-84
2021/03/13 10:38:49;;;;;;;1.47;0.90;;;11.00;83.30;;;;;;5084372;28;20168;-84
2021/03/13 10:41:22;;;;;;;0.80;0.70;;;11.20;83.30;;;;;;5103171;28;20172;-84
2021/03/13 10:43:49;;;;;;;2.37;0.70;;;11.10;78.60;;;;;;5103453;28;20630;-86
2021/03/13 10:46:24;;;;;;;1.67;0.70;;;11.00;79.10;;;;;;5102434;28;20192;-83
2021/03/13 10:48:53;;;;;;;0.77;0.60;;;11.20;77.90;;;;;;5102123;28;20271;-84
2021/03/13 10:51:43;;;;;;;3.20;0.60;;;11.40;76.60;;;;;;5084958;28;20183;-84
2021/03/13 10:54:30;;;;;;;1.93;1.10;;;11.30;75.60;;;;;;5103962;28;20157;-84
2021/03/13 10:57:05;;;;;;;1.03;0.60;;;11.80;74.00;;;;;;5086004;28;20165;-84
2021/03/13 10:59:32;;;;;;;2.30;1.13;;;11.80;74.30;;;;;;5102650;28;20198;-83
2021/03/13 11:01:57;;;;;;;1.70;0.90;;;12.10;73.30;;;;;;5103413;28;20630;-84
2021/03/13 11:04:23;;;;;;;1.00;0.90;;;12.40;73.50;;;;;;5084914;28;20188;-84
2021/03/13 11:06:53;;;;;;;4.53;0.80;;;12.50;70.00;;;;;;5084455;28;20207;-84
2021/03/13 11:09:20;;;;;;;1.20;0.70;;;12.50;67.90;;;;;;5084878;28;20173;-83
2021/03/13 11:11:45;;;;;;;4.00;0.90;;;12.40;67.70;;;;;;5103339;28;20199;-84
2021/03/13 11:14:11;;;;;;;2.27;1.00;;;12.60;65.90;;;;;;5084821;28;20172;-84
2021/03/13 11:16:37;;;;;;;0.63;0.50;;;12.40;64.10;;;;;;5086527;28;20185;-83
2021/03/13 11:19:04;;;;;;;1.77;0.73;;;12.30;62.80;;;;;;5102579;28;20247;-83
2021/03/13 11:21:30;;;;;;;1.80;0.60;;;12.20;63.00;;;;;;5103275;28;20202;-82
2021/03/13 11:23:56;;;;;;;1.30;0.70;;;11.90;59.80;;;;;;5103784;28;20230;-84
2021/03/13 11:26:23;;;;;;;0.60;0.60;;;11.80;62.30;;;;;;5084164;28;20579;-84
2021/03/13 11:28:50;;;;;;;2.70;0.80;;;11.70;61.20;;;;;;5084460;28;20172;-83
2021/03/13 11:31:16;;;;;;;4.17;0.93;;;11.80;61.80;;;;;;5084603;28;20195;-83
2021/03/13 11:33:42;;;;;;;1.20;0.90;;;12.10;61.60;;;;;;5103854;28;20173;-84
2021/03/13 11:36:09;;;;;;;7.13;2.23;;;12.20;60.20;;;;;;5085260;28;20223;-85
2021/03/13 11:38:36;;;;;;;2.77;1.57;;;12.20;61.30;;;;;;5084105;28;20176;-85
2021/03/13 11:41:02;;;;;;;2.80;1.50;;;12.50;61.80;;;;;;5100956;28;20188;-85
2021/03/13 11:43:30;;;;;;;2.63;1.80;;;12.90;61.00;;;;;;5084546;28;20206;-84
2021/03/13 11:45:55;;;;;;;2.10;1.00;;;12.60;61.40;;;;;;5102868;28;20198;-84
2021/03/13 11:48:21;;;;;;;3.13;2.10;;;12.40;61.10;;;;;;5103254;28;20263;-85
2021/03/13 11:50:48;;;;;;;4.00;2.03;;;13.10;60.20;;;;;;5084830;28;20223;-81
2021/03/13 11:53:13;;;;;;;1.87;1.10;;;13.10;58.80;;;;;;5104208;28;20175;-83
2021/03/13 11:55:39;;;;;;;0.97;0.70;;;12.90;57.90;;;;;;5103650;28;20184;-83
2021/03/13 11:58:05;;;;;;;2.60;0.90;;;13.10;57.40;;;;;;5087200;28;20176;-82
2021/03/13 12:00:31;;;;;;;1.97;1.27;;;13.10;57.60;;;;;;5087510;28;20290;-83
2021/03/13 12:02:57;;;;;;;3.23;2.23;;;13.40;57.00;;;;;;5106547;28;20176;-83
2021/03/13 12:05:22;;;;;;;6.60;4.47;;;13.40;55.60;;;;;;5092317;28;20192;-83
2021/03/13 12:07:48;;;;;;;4.77;3.10;;;13.10;55.40;;;;;;5111017;28;20230;-83
2021/03/13 12:10:14;;;;;;;1.93;0.90;;;13.10;55.50;;;;;;5111917;28;20183;-83
2021/03/13 12:12:39;;;;;;;2.30;1.77;;;13.50;55.70;;;;;;5103486;28;20196;-83
2021/03/13 12:15:07;;;;;;;0.63;0.60;;;13.90;56.60;;;;;;5085295;28;20666;-83
2021/03/13 12:17:33;;;;;;;1.40;1.03;;;13.40;54.30;;;;;;5085142;28;20566;-83
2021/03/13 12:19:59;;;;;;;1.60;0.73;;;13.40;55.60;;;;;;5103515;28;20172;-83
2021/03/13 12:22:26;;;;;;;2.63;1.10;;;13.60;56.80;;;;;;5085340;28;20184;-83
2021/03/13 12:24:52;;;;;;;1.80;0.70;;;14.00;56.00;;;;;;5104801;28;20233;-82
2021/03/13 12:27:18;;;;;;;1.60;0.80;;;13.50;53.70;;;;;;5105264;28;20196;-83
2021/03/13 12:29:44;;;;;;;1.13;0.83;;;13.40;54.80;;;;;;5104391;28;20179;-83
2021/03/13 12:32:10;;;;;;;3.63;2.13;;;13.20;56.00;;;;;;5104444;28;20168;-83
2021/03/13 12:34:36;;;;;;;2.73;1.37;;;13.30;56.10;;;;;;5104920;28;20546;-83
2021/03/13 12:37:02;;;;;;;2.03;0.90;;;13.10;56.80;;;;;;5042863;28;20228;-83
2021/03/13 12:39:27;;;;;;;2.93;1.83;;;12.90;56.10;;;;;;5064421;28;20234;-83
2021/03/13 12:41:53;;;;;;;2.63;1.53;;;12.90;56.60;;;;;;5082117;28;20176;-83
2021/03/13 12:44:19;;;;;;;0.87;0.77;;;12.80;55.20;;;;;;5062536;28;20180;-83
2021/03/13 12:46:44;;;;;;;3.67;0.90;;;12.60;56.50;;;;;;5062542;28;20593;-82
2021/03/13 12:49:10;;;;;;;0.87;0.70;;;12.30;55.60;;;;;;5062526;28;20260;-82
2021/03/13 12:51:37;;;;;;;0.70;0.53;;;12.00;56.10;;;;;;5080592;28;20521;-83
2021/03/13 12:54:03;;;;;;;2.47;1.90;;;11.90;55.70;;;;;;5080545;28;20192;-83
2021/03/13 12:56:29;;;;;;;4.03;0.90;;;11.80;56.00;;;;;;5062571;28;20192;-83
2021/03/13 12:58:55;;;;;;;2.03;1.10;;;11.90;56.60;;;;;;5063025;28;20184;-83
2021/03/13 13:01:20;;;;;;;1.17;1.07;;;11.90;55.80;;;;;;5080642;28;20220;-83
2021/03/13 13:04:00;;;;;;;1.63;1.10;;;11.80;56.20;;;;;;5081328;28;20204;-82
2021/03/13 13:06:26;;;;;;;2.30;0.73;;;11.80;56.20;;;;;;5082686;28;20673;-83
2021/03/13 13:08:55;;;;;;;3.57;1.10;;;11.90;56.10;;;;;;5081753;28;20168;-83
2021/03/13 13:11:23;;;;;;;1.00;0.70;;;11.80;57.00;;;;;;5081792;28;20172;-82
2021/03/13 13:13:49;;;;;;;1.20;0.87;;;11.80;57.10;;;;;;5063170;28;20514;-82